createdAt,value
2023-02-28T00:00:38.312Z,102305.19
2023-02-28T00:03:06.408Z,102304.41
2023-02-28T00:05:36.112Z,102309.81
2023-02-28T00:08:04.280Z,102304.53
2023-02-28T00:10:33.715Z,102299.25
2023-02-28T00:13:04.182Z,102306.38
2023-02-28T00:15:32.851Z,102316.31
2023-02-28T00:18:00.844Z,102318.19
2023-02-28T00:20:28.982Z,102320.97
2023-02-28T00:22:58.276Z,102311.03
2023-02-28T00:25:27.596Z,102315.56
2023-02-28T00:27:55.750Z,102310.38
2023-02-28T00:30:25.620Z,102272.84
2023-02-28T00:32:53.673Z,102315.78
2023-02-28T00:35:21.615Z,102322.06
2023-02-28T00:37:50.794Z,102314.81
2023-02-28T00:40:20.342Z,102310.16
2023-02-28T00:42:48.307Z,102308.47
2023-02-28T00:45:16.270Z,102307.69
2023-02-28T00:47:44.311Z,102304.38
2023-02-28T00:50:13.327Z,102311.47
2023-02-28T00:52:41.338Z,102303.50
2023-02-28T00:55:10.085Z,102302.63
2023-02-28T00:57:39.394Z,102296.34
2023-02-28T01:00:08.540Z,102287.28
2023-02-28T01:02:36.641Z,102292.81
2023-02-28T01:05:05.300Z,102294.53
2023-02-28T01:07:33.265Z,102278.75
2023-02-28T01:10:01.299Z,102289.34
2023-02-28T01:12:30.912Z,102289.47
2023-02-28T01:15:00.469Z,102292.38
2023-02-28T01:17:28.447Z,102294.22
2023-02-28T01:19:57.321Z,102295.50
2023-02-28T01:22:26.787Z,102295.19
2023-02-28T01:24:55.041Z,102301.44
2023-02-28T01:27:23.123Z,102293.34
2023-02-28T01:29:52.696Z,102303.31
2023-02-28T01:32:22.378Z,102302.53
2023-02-28T01:34:51.676Z,102302.53
2023-02-28T01:37:19.594Z,102305.00
2023-02-28T01:39:47.659Z,102305.88
2023-02-28T01:42:15.648Z,102306.00
2023-02-28T01:45:04.988Z,102315.72
2023-02-28T01:47:38.613Z,102314.00
2023-02-28T01:50:11.782Z,102312.25
2023-02-28T01:52:39.883Z,102312.25
2023-02-28T01:55:09.618Z,102317.66
2023-02-28T01:57:43.116Z,102319.38
2023-02-28T02:00:16.127Z,102313.34
2023-02-28T02:02:58.308Z,102312.50
2023-02-28T02:05:29.432Z,102305.47
2023-02-28T02:08:00.238Z,102311.84
2023-02-28T02:10:32.905Z,102302.00
2023-02-28T02:13:16.014Z,102294.91
2023-02-28T02:15:51.386Z,102294.03
2023-02-28T02:18:32.990Z,102300.16
2023-02-28T02:21:49.221Z,102286.78
2023-02-28T02:25:01.743Z,102294.13
2023-02-28T02:27:41.107Z,102270.38
2023-02-28T02:30:32.183Z,102293.50
2023-02-28T02:33:24.324Z,102288.09
2023-02-28T02:35:57.438Z,102302.47
2023-02-28T02:38:35.877Z,102297.91
2023-02-28T02:41:13.853Z,102289.78
2023-02-28T02:43:48.713Z,102289.78
2023-02-28T02:46:21.620Z,102288.84
2023-02-28T02:48:52.809Z,102265.66
2023-02-28T02:51:25.368Z,102300.38
2023-02-28T02:53:57.401Z,102303.09
2023-02-28T02:56:33.585Z,102291.31
2023-02-28T02:59:06.594Z,102295.75
2023-02-28T03:01:36.915Z,102296.50
2023-02-28T03:04:08.136Z,102303.63
2023-02-28T03:06:37.620Z,102303.63
2023-02-28T03:09:06.556Z,102259.16
2023-02-28T03:11:37.180Z,102292.19
2023-02-28T03:14:18.606Z,102296.50
2023-02-28T03:17:00.731Z,102300.16
2023-02-28T03:19:54.012Z,102291.53
2023-02-28T03:22:53.587Z,102295.00
2023-02-28T03:25:32.464Z,102302.34
2023-02-28T03:28:10.584Z,102287.09
2023-02-28T03:30:48.094Z,102283.66
2023-02-28T03:33:20.737Z,102289.19
2023-02-28T03:35:54.626Z,102288.31
2023-02-28T03:38:30.488Z,102294.66
2023-02-28T03:41:03.650Z,102296.53
2023-02-28T03:43:36.889Z,102308.28
2023-02-28T03:46:11.477Z,102297.50
2023-02-28T03:48:44.039Z,102303.03
2023-02-28T03:51:18.248Z,102304.72
2023-02-28T03:53:52.621Z,102307.53
2023-02-28T03:56:24.157Z,102302.25
2023-02-28T03:58:57.898Z,102300.41
2023-02-28T04:01:29.322Z,102294.03
2023-02-28T04:03:57.684Z,102293.91
2023-02-28T04:06:26.586Z,102286.56
2023-02-28T04:08:55.944Z,102277.63
2023-02-28T04:11:30.269Z,102282.91
2023-02-28T04:13:58.461Z,102274.81
2023-02-28T04:16:35.148Z,102276.63
2023-02-28T04:19:05.941Z,102286.34
2023-02-28T04:21:35.936Z,102282.69
2023-02-28T04:24:06.198Z,102274.59
2023-02-28T04:26:35.065Z,102279.00
2023-02-28T04:29:04.625Z,102281.16
2023-02-28T04:31:33.258Z,102279.00
2023-02-28T04:34:02.069Z,102286.13
2023-02-28T04:36:30.360Z,102279.13
2023-02-28T04:38:58.651Z,102282.69
2023-02-28T04:41:32.185Z,102277.38
2023-02-28T04:44:01.020Z,102273.94
2023-02-28T04:46:29.027Z,102270.38
2023-02-28T04:48:57.044Z,102285.59
2023-02-28T04:51:25.027Z,102288.31
2023-02-28T04:53:53.125Z,102288.31
2023-02-28T04:56:21.461Z,102291.97
2023-02-28T04:58:51.780Z,102291.13
2023-02-28T05:01:25.532Z,102298.38
2023-02-28T05:03:55.263Z,102283.13
2023-02-28T05:06:25.277Z,102297.72
2023-02-28T05:08:53.935Z,102297.06
2023-02-28T05:11:23.858Z,102307.84
2023-02-28T05:13:54.703Z,102286.94
2023-02-28T05:16:22.982Z,102270.59
2023-02-28T05:18:51.068Z,102303.66
2023-02-28T05:21:31.453Z,102303.53
2023-02-28T05:24:01.809Z,102305.41
2023-02-28T05:26:30.674Z,102308.84
2023-02-28T05:29:00.108Z,102310.47
2023-02-28T05:31:28.545Z,102309.47
2023-02-28T05:33:56.714Z,102299.44
2023-02-28T05:36:25.466Z,102303.03
2023-02-28T05:38:53.870Z,102301.16
2023-02-28T05:41:22.444Z,102309.25
2023-02-28T05:43:51.346Z,102313.81
2023-02-28T05:46:20.703Z,102318.22
2023-02-28T05:48:49.947Z,102311.00
2023-02-28T05:51:18.844Z,102313.69
2023-02-28T05:53:46.841Z,102313.56
2023-02-28T05:56:14.861Z,102311.88
2023-02-28T05:58:42.898Z,102324.50
2023-02-28T06:01:32.558Z,102297.72
2023-02-28T06:04:01.024Z,102287.53
2023-02-28T06:06:29.154Z,102323.09
2023-02-28T06:08:57.494Z,102321.34
2023-02-28T06:11:28.526Z,102315.88
2023-02-28T06:13:57.595Z,102311.41
2023-02-28T06:16:28.243Z,102323.84
2023-02-28T06:18:57.235Z,102325.66
2023-02-28T06:21:25.674Z,102323.84
2023-02-28T06:23:53.837Z,102331.19
2023-02-28T06:26:21.989Z,102336.47
2023-02-28T06:28:50.223Z,102332.16
2023-02-28T06:31:20.149Z,102338.44
2023-02-28T06:33:50.263Z,102332.28
2023-02-28T06:36:18.709Z,102337.81
2023-02-28T06:38:46.750Z,102335.72
2023-02-28T06:41:14.690Z,102339.28
2023-02-28T06:43:44.082Z,102342.75
2023-02-28T06:46:15.577Z,102349.88
2023-02-28T06:48:45.433Z,102346.22
2023-02-28T06:51:17.288Z,102341.66
2023-02-28T06:53:45.344Z,102338.97
2023-02-28T06:56:15.101Z,102334.56
2023-02-28T06:58:43.293Z,102341.56
2023-02-28T07:01:11.495Z,102338.97
2023-02-28T07:03:39.450Z,102337.03
2023-02-28T07:06:08.026Z,102340.56
2023-02-28T07:08:37.890Z,102346.84
2023-02-28T07:11:06.648Z,102348.69
2023-02-28T07:13:34.578Z,102342.53
2023-02-28T07:16:05.128Z,102341.78
2023-02-28T07:18:33.974Z,102341.78
2023-02-28T07:21:04.198Z,102307.13
2023-02-28T07:23:32.453Z,102344.69
2023-02-28T07:26:02.066Z,102348.34
2023-02-28T07:28:30.228Z,102348.47
2023-02-28T07:30:58.549Z,102345.78
2023-02-28T07:33:26.635Z,102339.41
2023-02-28T07:36:01.815Z,102339.28
2023-02-28T07:38:29.908Z,102341.03
2023-02-28T07:40:57.974Z,102344.56
2023-02-28T07:43:27.406Z,102347.28
2023-02-28T07:45:55.417Z,102344.69
2023-02-28T07:48:23.510Z,102342.97
2023-02-28T07:50:57.602Z,102344.91
2023-02-28T07:53:25.896Z,102332.59
2023-02-28T07:55:57.216Z,102334.31
2023-02-28T07:58:25.819Z,102336.94
2023-02-28T08:00:55.286Z,102332.16
2023-02-28T08:03:24.787Z,102333.78
2023-02-28T08:05:53.641Z,102328.50
2023-02-28T08:08:21.727Z,102319.09
2023-02-28T08:10:49.700Z,102320.59
2023-02-28T08:13:17.802Z,102324.81
2023-02-28T08:15:46.343Z,102319.19
2023-02-28T08:18:15.686Z,102326.31
2023-02-28T08:20:43.788Z,102316.81
2023-02-28T08:23:11.718Z,102323.72
2023-02-28T08:25:39.697Z,102324.34
2023-02-28T08:28:07.772Z,102324.97
2023-02-28T08:30:35.772Z,102332.00
2023-02-28T08:33:03.921Z,102329.72
2023-02-28T08:35:33.354Z,102319.59
2023-02-28T08:38:01.302Z,102329.41
2023-02-28T08:40:29.192Z,102327.47
2023-02-28T08:42:57.136Z,102327.38
2023-02-28T08:45:26.341Z,102322.72
2023-02-28T08:47:56.308Z,102320.66
2023-02-28T08:50:24.619Z,102314.16
2023-02-28T08:52:53.920Z,102316.72
2023-02-28T08:55:21.832Z,102316.50
2023-02-28T08:57:49.755Z,102304.59
2023-02-28T09:00:18.365Z,102309.88
2023-02-28T09:02:46.307Z,102309.78
2023-02-28T09:05:14.275Z,102305.88
2023-02-28T09:07:42.273Z,102302.19
2023-02-28T09:10:13.448Z,102297.44
2023-02-28T09:12:41.567Z,102293.63
2023-02-28T09:15:10.615Z,102289.06
2023-02-28T09:17:38.695Z,102289.72
2023-02-28T09:20:07.918Z,102281.38
2023-02-28T09:22:36.343Z,102289.25
2023-02-28T09:25:04.522Z,102290.09
2023-02-28T09:27:33.820Z,102279.06
2023-02-28T09:30:01.765Z,102278.97
2023-02-28T09:32:29.699Z,102274.41
2023-02-28T09:34:57.895Z,102278.81
2023-02-28T09:37:27.514Z,102277.00
2023-02-28T09:39:55.575Z,102268.66
2023-02-28T09:42:35.864Z,102236.50
2023-02-28T09:45:15.413Z,102265.72
2023-02-28T09:47:47.424Z,102264.50
2023-02-28T09:50:33.974Z,102271.63
2023-02-28T09:53:07.893Z,102263.63
2023-02-28T09:55:46.566Z,102261.78
2023-02-28T09:58:22.987Z,102257.25
2023-02-28T10:01:00.722Z,102265.16
2023-02-28T10:03:35.462Z,102264.25
2023-02-28T10:06:10.005Z,102265.03
2023-02-28T10:08:46.261Z,102261.34
2023-02-28T10:11:19.097Z,102264.16
2023-02-28T10:13:56.826Z,102266.09
2023-02-28T10:16:31.705Z,102260.06
2023-02-28T10:19:05.638Z,102274.56
2023-02-28T10:21:38.944Z,102284.50
2023-02-28T10:24:21.121Z,102283.66
2023-02-28T10:26:50.626Z,102285.75
2023-02-28T10:29:19.915Z,102289.19
2023-02-28T10:31:48.330Z,102294.69
2023-02-28T10:34:16.279Z,102289.28
2023-02-28T10:36:45.934Z,102294.59
2023-02-28T10:39:38.631Z,102284.66
2023-02-28T10:42:18.430Z,102293.59
2023-02-28T10:44:47.825Z,102292.53
2023-02-28T10:47:18.768Z,102284.16
2023-02-28T10:49:51.089Z,102273.47
2023-02-28T10:52:36.086Z,102285.16
2023-02-28T10:55:18.467Z,102273.47
2023-02-28T10:57:46.459Z,102272.72
2023-02-28T11:00:20.029Z,102271.72
2023-02-28T11:02:48.069Z,102276.53
2023-02-28T11:05:28.389Z,102288.19
2023-02-28T11:07:58.303Z,102289.41
2023-02-28T11:10:30.791Z,102292.88
2023-02-28T11:13:01.198Z,102286.72
2023-02-28T11:15:33.315Z,102289.41
2023-02-28T11:18:03.432Z,102284.13
2023-02-28T11:20:34.916Z,102280.56
2023-02-28T11:23:06.219Z,102279.69
2023-02-28T11:25:35.986Z,102277.22
2023-02-28T11:28:07.631Z,102279.81
2023-02-28T11:30:39.479Z,102277.97
2023-02-28T11:33:30.197Z,102278.09
2023-02-28T11:36:01.027Z,102282.53
2023-02-28T11:38:29.676Z,102271.44
2023-02-28T11:41:21.986Z,102264.84
2023-02-28T11:44:06.012Z,102268.28
2023-02-28T11:46:42.891Z,102266.56
2023-02-28T11:49:38.259Z,102264.72
2023-02-28T11:52:16.529Z,102253.03
2023-02-28T11:55:01.257Z,102252.28
2023-02-28T11:57:52.510Z,102245.91
2023-02-28T12:00:35.905Z,102245.19
2023-02-28T12:03:22.268Z,102233.59
2023-02-28T12:05:58.612Z,102245.28
2023-02-28T12:08:42.379Z,102241.69
2023-02-28T12:11:21.517Z,102246.16
2023-02-28T12:13:58.879Z,102236.28
2023-02-28T12:16:43.274Z,102231.75
2023-02-28T12:19:29.071Z,102217.09
2023-02-28T12:22:14.061Z,102242.69
2023-02-28T12:25:02.587Z,102247.25
2023-02-28T12:27:36.148Z,102240.09
2023-02-28T12:30:08.211Z,102240.97
2023-02-28T12:32:39.986Z,102234.69
2023-02-28T12:35:15.793Z,102234.69
2023-02-28T12:37:49.405Z,102232.13
2023-02-28T12:40:21.612Z,102225.97
2023-02-28T12:42:54.017Z,102233.22
2023-02-28T12:45:25.082Z,102225.19
2023-02-28T12:47:59.484Z,102227.91
2023-02-28T12:50:32.451Z,102232.47
2023-02-28T12:53:05.303Z,102234.41
2023-02-28T12:55:42.397Z,102231.84
2023-02-28T12:58:16.724Z,102230.00
2023-02-28T13:01:17.296Z,102237.13
2023-02-28T13:04:08.167Z,102230.09
2023-02-28T13:06:55.735Z,102231.09
2023-02-28T13:09:24.238Z,102234.03
2023-02-28T13:11:53.784Z,102241.28
2023-02-28T13:14:28.186Z,102233.06
2023-02-28T13:17:03.729Z,102236.59
2023-02-28T13:19:34.408Z,102220.38
2023-02-28T13:22:05.091Z,102227.41
2023-02-28T13:24:43.536Z,102228.03
2023-02-28T13:27:37.789Z,102230.75
2023-02-28T13:30:39.029Z,102235.28
2023-02-28T13:33:27.371Z,102232.56
2023-02-28T13:36:24.867Z,102231.59
2023-02-28T13:38:56.452Z,102220.06
2023-02-28T13:41:44.509Z,102222.50
2023-02-28T13:44:14.013Z,102226.19
2023-02-28T13:47:19.300Z,102233.22
2023-02-28T13:49:47.526Z,102232.34
2023-02-28T13:52:20.979Z,102233.94
2023-02-28T13:55:03.436Z,102227.69
2023-02-28T13:57:44.347Z,102233.84
2023-02-28T14:00:26.042Z,102233.09
2023-02-28T14:03:23.153Z,102240.09
2023-02-28T14:06:11.612Z,102242.06
2023-02-28T14:08:39.851Z,102237.66
2023-02-28T14:11:25.640Z,102237.66
2023-02-28T14:13:53.825Z,102233.94
2023-02-28T14:16:25.119Z,102232.84
2023-02-28T14:19:00.037Z,102235.47
2023-02-28T14:21:31.266Z,102245.19
2023-02-28T14:24:22.981Z,102236.94
2023-02-28T14:27:16.183Z,102241.38
2023-02-28T14:30:13.811Z,102230.56
2023-02-28T14:32:49.886Z,102228.69
2023-02-28T14:35:50.248Z,102232.25
2023-02-28T14:38:22.343Z,102225.03
2023-02-28T14:40:53.300Z,102228.59
2023-02-28T14:43:24.781Z,102231.06
2023-02-28T14:45:55.623Z,102222.31
2023-02-28T14:48:26.084Z,102218.50
2023-02-28T14:50:57.224Z,102214.94
2023-02-28T14:53:29.518Z,102216.91
2023-02-28T14:55:57.935Z,102214.19
2023-02-28T14:58:29.447Z,102205.22
2023-02-28T15:00:59.763Z,102193.78
2023-02-28T15:03:34.840Z,102187.16
2023-02-28T15:06:05.454Z,102199.56
2023-02-28T15:08:37.232Z,102190.00
2023-02-28T15:11:08.320Z,102208.34
2023-02-28T15:13:42.278Z,102207.34
2023-02-28T15:16:14.508Z,102204.75
2023-02-28T15:18:50.546Z,102204.88
2023-02-28T15:21:22.858Z,102215.69
2023-02-28T15:23:54.458Z,102218.28
2023-02-28T15:26:24.615Z,102211.06
2023-02-28T15:28:58.906Z,102202.03
2023-02-28T15:31:36.178Z,102208.56
2023-02-28T15:34:08.728Z,102202.28
2023-02-28T15:36:38.193Z,102206.81
2023-02-28T15:39:21.606Z,102201.66
2023-02-28T15:41:49.710Z,102201.66
2023-02-28T15:44:27.793Z,102204.34
2023-02-28T15:47:00.845Z,102193.66
2023-02-28T15:49:31.936Z,102189.13
2023-02-28T15:52:01.806Z,102195.41
2023-02-28T15:54:32.367Z,102179.16
2023-02-28T15:57:05.701Z,102189.84
2023-02-28T15:59:35.141Z,102180.00
2023-02-28T16:02:17.590Z,102187.28
2023-02-28T16:05:00.740Z,102170.28
2023-02-28T16:07:29.247Z,102169.31
2023-02-28T16:09:57.202Z,102167.50
2023-02-28T16:12:29.611Z,102169.19
2023-02-28T16:15:03.460Z,102169.19
2023-02-28T16:17:35.109Z,102160.56
2023-02-28T16:20:05.005Z,102166.63
2023-02-28T16:22:33.007Z,102176.47
2023-02-28T16:25:01.014Z,102176.56
2023-02-28T16:27:33.402Z,102140.38
2023-02-28T16:30:03.166Z,102173.34
2023-02-28T16:32:32.609Z,102183.44
2023-02-28T16:35:00.609Z,102178.16
2023-02-28T16:37:29.698Z,102165.47
2023-02-28T16:39:57.738Z,102190.81
2023-02-28T16:42:29.226Z,102192.53
2023-02-28T16:44:59.074Z,102192.66
2023-02-28T16:47:28.662Z,102189.94
2023-02-28T16:49:57.038Z,102188.22
2023-02-28T16:52:25.019Z,102193.63
2023-02-28T16:54:53.154Z,102179.59
2023-02-28T16:57:24.168Z,102189.94
2023-02-28T16:59:52.767Z,102197.19
2023-02-28T17:02:21.647Z,102198.28
2023-02-28T17:04:51.356Z,102190.06
2023-02-28T17:07:19.334Z,102198.06
2023-02-28T17:09:47.550Z,102198.94
2023-02-28T17:12:15.734Z,102207.16
2023-02-28T17:14:43.818Z,102204.56
2023-02-28T17:17:18.786Z,102205.66
2023-02-28T17:19:46.904Z,102202.09
2023-02-28T17:22:16.220Z,102201.34
2023-02-28T17:24:44.222Z,102201.59
2023-02-28T17:27:14.799Z,102198.00
2023-02-28T17:29:42.990Z,102202.69
2023-02-28T17:32:17.774Z,102187.78
2023-02-28T17:34:47.082Z,102192.97
2023-02-28T17:37:17.094Z,102192.09
2023-02-28T17:39:45.058Z,102197.63
2023-02-28T17:42:13.241Z,102187.94
2023-02-28T17:44:41.172Z,102184.56
2023-02-28T17:47:11.306Z,102184.72
2023-02-28T17:49:39.245Z,102185.69
2023-02-28T17:52:07.267Z,102182.25
2023-02-28T17:54:36.627Z,102181.38
2023-02-28T17:57:04.652Z,102181.59
2023-02-28T17:59:34.474Z,102185.16
2023-02-28T18:02:02.715Z,102176.19
2023-02-28T18:04:30.740Z,102174.44
2023-02-28T18:07:01.092Z,102171.25
2023-02-28T18:09:29.403Z,102138.47
2023-02-28T18:11:58.772Z,102174.94
2023-02-28T18:14:27.389Z,102174.44
2023-02-28T18:16:56.107Z,102177.00
2023-02-28T18:19:25.143Z,102154.91
2023-02-28T18:21:54.932Z,102179.09
2023-02-28T18:24:24.722Z,102176.47
2023-02-28T18:26:53.640Z,102170.41
2023-02-28T18:29:26.158Z,102179.59
2023-02-28T18:31:55.860Z,102164.47
2023-02-28T18:34:25.015Z,102181.91
2023-02-28T18:36:53.763Z,102175.78
2023-02-28T18:39:22.083Z,102178.56
2023-02-28T18:41:50.086Z,102179.66
2023-02-28T18:44:20.283Z,102187.25
2023-02-28T18:46:51.090Z,102155.47
2023-02-28T18:49:19.379Z,102180.47
2023-02-28T18:51:47.737Z,102183.28
2023-02-28T18:54:16.727Z,102184.25
2023-02-28T18:56:45.027Z,102179.84
2023-02-28T18:59:13.092Z,102184.38
2023-02-28T19:01:41.155Z,102183.50
2023-02-28T19:04:13.976Z,102178.25
2023-02-28T19:06:42.134Z,102188.41
2023-02-28T19:09:10.494Z,102194.66
2023-02-28T19:11:39.099Z,102194.66
2023-02-28T19:14:08.085Z,102194.88
2023-02-28T19:16:36.731Z,102191.31
2023-02-28T19:19:04.785Z,102188.84
2023-02-28T19:21:36.622Z,102183.44
2023-02-28T19:24:06.080Z,102187.13
2023-02-28T19:26:34.233Z,102192.53
2023-02-28T19:29:03.791Z,102180.13
2023-02-28T19:31:32.182Z,102194.44
2023-02-28T19:34:00.509Z,102190.25
2023-02-28T19:36:28.574Z,102197.41
2023-02-28T19:38:57.925Z,102199.22
2023-02-28T19:41:27.079Z,102211.00
2023-02-28T19:43:55.499Z,102195.88
2023-02-28T19:46:23.451Z,102210.38
2023-02-28T19:48:54.649Z,102206.38
2023-02-28T19:51:23.645Z,102215.78
2023-02-28T19:53:51.670Z,102216.72
2023-02-28T19:56:21.086Z,102215.00
2023-02-28T19:58:49.230Z,102212.28
2023-02-28T20:01:19.525Z,102231.97
2023-02-28T20:03:49.528Z,102233.81
2023-02-28T20:06:17.690Z,102241.03
2023-02-28T20:08:45.669Z,102230.22
2023-02-28T20:11:15.597Z,102236.50
2023-02-28T20:13:45.577Z,102231.19
2023-02-28T20:16:15.266Z,102239.41
2023-02-28T20:18:44.262Z,102246.78
2023-02-28T20:21:14.882Z,102243.28
2023-02-28T20:23:43.280Z,102220.41
2023-02-28T20:26:11.913Z,102260.47
2023-02-28T20:28:40.791Z,102258.66
2023-02-28T20:31:14.578Z,102252.44
2023-02-28T20:33:45.549Z,102256.13
2023-02-28T20:36:15.788Z,102256.13
2023-02-28T20:38:44.249Z,102225.94
2023-02-28T20:41:13.046Z,102224.31
2023-02-28T20:43:41.532Z,102253.53
2023-02-28T20:46:10.258Z,102258.09
2023-02-28T20:48:40.607Z,102256.34
2023-02-28T20:51:09.091Z,102262.69
2023-02-28T20:53:37.509Z,102261.09
2023-02-28T20:56:08.953Z,102266.47
2023-02-28T20:58:38.792Z,102263.91
2023-02-28T21:01:12.956Z,102268.34
2023-02-28T21:03:42.746Z,102280.84
2023-02-28T21:06:11.015Z,102245.31
2023-02-28T21:08:39.956Z,102282.38
2023-02-28T21:11:10.036Z,102289.38
2023-02-28T21:13:38.647Z,102294.69
2023-02-28T21:16:07.808Z,102296.31
2023-02-28T21:18:36.687Z,102294.50
2023-02-28T21:21:07.719Z,102297.94
2023-02-28T21:23:35.870Z,102268.34
2023-02-28T21:26:05.302Z,102303.25
2023-02-28T21:28:34.170Z,102287.53
2023-02-28T21:31:03.505Z,102310.88
2023-02-28T21:33:32.096Z,102297.31
2023-02-28T21:36:06.706Z,102307.97
2023-02-28T21:38:35.154Z,102309.72
2023-02-28T21:41:07.162Z,102316.81
2023-02-28T21:43:35.606Z,102323.97
2023-02-28T21:46:04.306Z,102323.84
2023-02-28T21:48:33.165Z,102329.25
2023-02-28T21:51:02.454Z,102327.41
2023-02-28T21:53:32.586Z,102334.56
2023-02-28T21:56:02.037Z,102340.81
2023-02-28T21:58:30.388Z,102342.53
2023-02-28T22:01:05.571Z,102344.28
2023-02-28T22:03:33.884Z,102335.72
2023-02-28T22:06:01.872Z,102343.41
2023-02-28T22:08:31.279Z,102350.63
2023-02-28T22:11:04.526Z,102315.88
2023-02-28T22:13:32.507Z,102345.34
2023-02-28T22:16:03.568Z,102355.28
2023-02-28T22:18:31.912Z,102353.66
2023-02-28T22:20:59.822Z,102359.16
2023-02-28T22:23:28.228Z,102363.59
2023-02-28T22:25:57.742Z,102364.47
2023-02-28T22:28:27.362Z,102366.19
2023-02-28T22:30:55.382Z,102373.31
2023-02-28T22:33:23.587Z,102375.94
2023-02-28T22:35:51.622Z,102379.38
2023-02-28T22:38:20.318Z,102373.84
2023-02-28T22:40:48.274Z,102370.19
2023-02-28T22:43:17.631Z,102367.50
2023-02-28T22:45:45.739Z,102364.78
2023-02-28T22:48:13.727Z,102376.47
2023-02-28T22:50:41.622Z,102371.91
2023-02-28T22:53:09.591Z,102379.91
2023-02-28T22:55:37.642Z,102375.47
2023-02-28T22:58:05.889Z,102376.22
2023-02-28T23:00:35.178Z,102383.38
2023-02-28T23:03:03.243Z,102375.25
2023-02-28T23:05:31.658Z,102350.44
2023-02-28T23:08:01.050Z,102379.78
2023-02-28T23:10:29.044Z,102383.50
2023-02-28T23:12:57.099Z,102380.78
2023-02-28T23:15:25.159Z,102381.63
2023-02-28T23:17:54.803Z,102386.06
2023-02-28T23:20:23.030Z,102382.50
2023-02-28T23:22:51.524Z,102389.63
2023-02-28T23:25:20.276Z,102395.91
2023-02-28T23:27:48.414Z,102408.41
2023-02-28T23:30:17.482Z,102400.22
2023-02-28T23:32:45.560Z,102404.63
2023-02-28T23:35:14.934Z,102400.00
2023-02-28T23:37:43.116Z,102398.28
2023-02-28T23:40:13.008Z,102403.56
2023-02-28T23:42:41.828Z,102397.19
2023-02-28T23:45:11.595Z,102395.69
2023-02-28T23:47:39.596Z,102399.69
2023-02-28T23:50:08.181Z,102402.38
2023-02-28T23:52:37.466Z,102400.44
2023-02-28T23:55:05.888Z,102409.41
2023-02-28T23:57:36.009Z,102412.09
